Terminal Aerodrome Forecast
Issued by NWS

Home | Current Version | Previous Version | Text Only | Print | Product List | Glossary On
Versions: 1 2 3 4 5 6 7 8 9 10 11 12 13 14 15 16 17
830
FTUS46 KMFR 211730
TAFRBG
TAF
KRBG 211730Z 2118/2218 00000KT P6SM VCSH BKN028 BKN035 OVC045
     FM211900 36003KT P6SM FEW035 SCT050
     FM212300 36008G15KT P6SM SKC
     FM220300 35006KT P6SM SKC=

USA.gov is the U.S. government's official web portal to all federal, state and local government web resources and services.